Portada
METAR-TAF:

METAR-TAF

Aeroports :

Àstrakhan, Rússia

latitud: 46-17N, longitud: 048-00-23E, altitud: 0 m

Observació

L'informe es va fer fa 39 minuts, a les 10:00 UTC
Vent 8 kt del Est, variant entre Nord-Est i Est/Sud-Est
Temperatura 31°C
Humitat 26%
Pressió 1012 hPa
Visibilitat 10 km o més
sense núvols per sota de 1500 mi sense presència de cumulonimbus.

METAR: URWA 231000Z 08004MPS 040V120 CAVOK 31/09 Q1012 R09/010070 NOSIG RMK QFE761/1015

Hora: 13:39 (10:39 UTC)

Pronòstic

L'informe es va fer fa 2 hores i 39 minuts, a les 08:00 UTC
Pronòstic vàlid del 23 a les 09 UTC al 23 a les 18 UTC
Vent 6 kt del Est/Nord-Est amb ràfegues de 16 kt
Visibilitat 10 km o més
Núvols disperses a una alçada de 2000 ft, Cumulonimbus.
Probabilitat 40% :
Temporalment
l' 23 a les 09 UTC al 23 a les 15 UTC
tempesta, pluja

TAF: URWA 230800Z 2309/2318 06003G08MPS 9999 SCT020CB PROB40 TEMPO 2309/2315 -TSRA

Observacions i pronòstics meteorològics de més de 4000 aeroports (METAR i TAF).

Les estacions disponibles són els punts grocs i vermells al mapa.

Posi el ratolí al punt desitjat per veure el nom de l'estació.

Feu clic per veure les observacions i els pronòstics meteorològics.

Per canviar el mapa: feu clic els botons verds amb una creu de color negre per apropar; al botó verd amb un guió per allunyar la imatge; o en les fletxes verdes per a mapes adjacents.


METAR-TAF: